createdAt,value
2022-08-23T00:02:28.558Z,4.53
2022-08-23T00:05:07.679Z,5.07
2022-08-23T00:07:39.487Z,4.40
2022-08-23T00:10:08.538Z,5.35
2022-08-23T00:12:36.314Z,7.22
2022-08-23T00:15:04.959Z,5.82
2022-08-23T00:17:34.236Z,5.13
2022-08-23T00:20:02.845Z,6.53
2022-08-23T00:22:30.678Z,4.78
2022-08-23T00:24:59.919Z,4.60
2022-08-23T00:27:27.944Z,7.53
2022-08-23T00:29:56.657Z,5.57
2022-08-23T00:32:25.943Z,7.03
2022-08-23T00:34:53.859Z,4.53
2022-08-23T00:37:22.531Z,7.75
2022-08-23T00:39:50.632Z,10.75
2022-08-23T00:42:45.178Z,4.75
2022-08-23T00:45:35.582Z,5.00
2022-08-23T00:48:05.055Z,5.88
2022-08-23T00:50:37.599Z,5.20
2022-08-23T00:53:08.475Z,10.27
2022-08-23T00:55:36.650Z,4.82
2022-08-23T00:58:05.913Z,6.28
2022-08-23T01:00:33.956Z,6.72
2022-08-23T01:03:03.181Z,5.32
2022-08-23T01:05:36.747Z,8.00
2022-08-23T01:08:04.878Z,5.15
2022-08-23T01:10:38.481Z,4.45
2022-08-23T01:13:10.269Z,6.63
2022-08-23T01:15:39.949Z,5.68
2022-08-23T01:18:09.401Z,5.82
2022-08-23T01:20:41.380Z,4.22
2022-08-23T01:23:18.759Z,6.10
2022-08-23T01:25:46.891Z,5.95
2022-08-23T01:28:14.720Z,9.27
2022-08-23T01:30:44.644Z,7.55
2022-08-23T01:33:13.498Z,5.65
2022-08-23T01:35:43.191Z,6.05
2022-08-23T01:38:12.546Z,6.85
2022-08-23T01:40:42.324Z,7.07
2022-08-23T01:43:10.321Z,4.97
2022-08-23T01:45:39.829Z,6.63
2022-08-23T01:48:09.557Z,6.35
2022-08-23T01:53:05.631Z,7.53
2022-08-23T01:55:33.611Z,7.50
2022-08-23T01:58:04.009Z,6.75
2022-08-23T02:00:34.095Z,8.98
2022-08-23T02:03:02.591Z,5.85
2022-08-23T02:05:31.863Z,7.68
2022-08-23T02:08:20.376Z,9.50
2022-08-23T02:10:49.995Z,11.63
2022-08-23T02:13:20.436Z,9.05
2022-08-23T02:15:51.318Z,13.45
2022-08-23T02:18:21.237Z,8.02
2022-08-23T02:20:50.762Z,9.93
2022-08-23T02:23:19.654Z,9.57
2022-08-23T02:25:47.572Z,9.55
2022-08-23T02:28:15.506Z,10.23
2022-08-23T02:30:45.311Z,9.27
2022-08-23T02:33:14.853Z,13.73
2022-08-23T02:35:44.781Z,8.70
2022-08-23T02:38:13.211Z,7.68
2022-08-23T02:40:42.384Z,14.48
2022-08-23T02:43:10.659Z,7.22
2022-08-23T02:45:39.660Z,9.13
2022-08-23T02:48:09.573Z,11.52
2022-08-23T02:50:59.973Z,15.77
2022-08-23T02:53:28.012Z,13.65
2022-08-23T02:55:56.572Z,10.55
2022-08-23T02:58:24.717Z,13.15
2022-08-23T03:00:53.527Z,8.75
2022-08-23T03:03:25.885Z,12.43
2022-08-23T03:05:54.695Z,11.82
2022-08-23T03:08:26.459Z,12.35
2022-08-23T03:10:54.297Z,11.10
2022-08-23T03:13:22.130Z,12.50
2022-08-23T03:15:51.287Z,11.90
2022-08-23T03:18:19.714Z,15.52
2022-08-23T03:20:49.799Z,14.25
2022-08-23T03:23:17.700Z,17.17
2022-08-23T03:25:46.170Z,25.63
2022-08-23T03:28:24.136Z,29.25
2022-08-23T03:30:52.157Z,21.48
2022-08-23T03:33:20.734Z,25.50
2022-08-23T03:35:50.443Z,23.90
2022-08-23T03:38:19.818Z,25.42
2022-08-23T03:40:52.429Z,28.75
2022-08-23T03:43:20.469Z,28.92
2022-08-23T03:45:48.308Z,25.25
2022-08-23T03:48:16.788Z,33.58
2022-08-23T03:50:45.710Z,28.20
2022-08-23T03:53:15.418Z,25.65
2022-08-23T03:55:45.577Z,26.63
2022-08-23T03:58:17.164Z,23.27
2022-08-23T04:00:45.271Z,23.58
2022-08-23T04:03:13.933Z,19.88
2022-08-23T04:06:14.488Z,20.83
2022-08-23T04:08:44.585Z,23.60
2022-08-23T04:11:13.509Z,22.33
2022-08-23T04:13:52.281Z,21.88
2022-08-23T04:16:20.505Z,22.20
2022-08-23T04:18:48.645Z,21.85
2022-08-23T04:21:20.667Z,20.33
2022-08-23T04:23:50.223Z,21.63
2022-08-23T04:26:18.218Z,18.35
2022-08-23T04:28:46.622Z,21.13
2022-08-23T04:31:14.638Z,15.82
2022-08-23T04:33:45.581Z,19.35
2022-08-23T04:36:21.026Z,25.55
2022-08-23T04:38:53.480Z,18.25
2022-08-23T04:41:39.172Z,17.50
2022-08-23T04:44:07.330Z,17.65
2022-08-23T04:46:37.239Z,17.52
2022-08-23T04:49:05.191Z,20.55
2022-08-23T04:51:33.395Z,17.80
2022-08-23T04:54:02.617Z,14.77
2022-08-23T04:56:43.603Z,18.25
2022-08-23T04:59:13.237Z,16.88
2022-08-23T05:01:43.996Z,17.10
2022-08-23T05:04:14.393Z,28.08
2022-08-23T05:06:42.447Z,30.52
2022-08-23T05:09:12.167Z,31.05
2022-08-23T05:11:41.187Z,19.88
2022-08-23T05:14:09.331Z,21.15
2022-08-23T05:16:37.338Z,21.98
2022-08-23T05:19:14.919Z,20.10
2022-08-23T05:21:45.526Z,22.85
2022-08-23T05:24:15.538Z,23.75
2022-08-23T05:26:46.209Z,23.25
2022-08-23T05:29:15.258Z,25.25
2022-08-23T05:31:50.383Z,26.98
2022-08-23T05:34:22.182Z,21.25
2022-08-23T05:36:55.796Z,21.80
2022-08-23T05:39:36.215Z,23.35
2022-08-23T05:42:08.296Z,27.90
2022-08-23T05:44:37.286Z,22.05
2022-08-23T05:47:11.095Z,19.88
2022-08-23T05:50:11.748Z,21.85
2022-08-23T05:52:40.279Z,21.80
2022-08-23T05:55:10.913Z,22.40
2022-08-23T05:57:41.661Z,22.67
2022-08-23T06:00:12.241Z,21.60
2022-08-23T06:02:46.744Z,23.58
2022-08-23T06:05:14.966Z,22.75
2022-08-23T06:07:44.851Z,19.75
2022-08-23T06:10:16.222Z,21.65
2022-08-23T06:12:47.860Z,22.85
2022-08-23T06:15:16.115Z,23.08
2022-08-23T06:17:44.147Z,22.08
2022-08-23T06:20:12.461Z,26.25
2022-08-23T06:22:59.050Z,21.60
2022-08-23T06:25:29.074Z,22.40
2022-08-23T06:28:07.917Z,21.25
2022-08-23T06:30:39.893Z,20.17
2022-08-23T06:33:27.458Z,22.42
2022-08-23T06:36:16.725Z,29.92
2022-08-23T06:39:09.044Z,20.13
2022-08-23T06:42:28.046Z,23.00
2022-08-23T06:45:02.387Z,24.10
2022-08-23T06:47:59.518Z,21.27
2022-08-23T06:50:32.092Z,23.00
2022-08-23T06:53:19.393Z,24.33
2022-08-23T06:56:06.408Z,26.08
2022-08-23T06:58:43.697Z,25.63
2022-08-23T07:01:44.731Z,24.02
2022-08-23T07:04:26.210Z,20.35
2022-08-23T07:07:12.683Z,16.55
2022-08-23T07:09:41.145Z,17.85
2022-08-23T07:12:09.394Z,15.90
2022-08-23T07:14:42.280Z,20.70
2022-08-23T07:17:11.302Z,19.95
2022-08-23T07:19:39.268Z,21.95
2022-08-23T07:22:07.654Z,18.33
2022-08-23T07:24:35.503Z,19.23
2022-08-23T07:27:07.158Z,15.95
2022-08-23T07:29:39.613Z,16.42
2022-08-23T07:32:09.221Z,16.92
2022-08-23T07:34:38.099Z,16.10
2022-08-23T07:37:15.312Z,18.48
2022-08-23T07:39:46.542Z,14.48
2022-08-23T07:42:23.642Z,14.95
2022-08-23T07:44:54.789Z,15.13
2022-08-23T07:47:28.532Z,11.77
2022-08-23T07:49:57.991Z,18.73
2022-08-23T07:52:26.533Z,14.52
2022-08-23T07:54:55.407Z,12.70
2022-08-23T07:57:52.604Z,31.35
2022-08-23T08:00:33.558Z,12.75
2022-08-23T08:03:18.359Z,14.48
2022-08-23T08:06:07.856Z,12.57
2022-08-23T08:08:35.800Z,12.13
2022-08-23T08:11:03.733Z,11.02
2022-08-23T08:13:32.505Z,14.35
2022-08-23T08:16:00.561Z,12.43
2022-08-23T08:18:32.798Z,16.52
2022-08-23T08:21:23.806Z,13.23
2022-08-23T08:24:16.276Z,11.75
2022-08-23T08:26:58.827Z,15.20
2022-08-23T08:29:26.778Z,12.07
2022-08-23T08:31:54.708Z,18.05
2022-08-23T08:34:24.152Z,12.20
2022-08-23T08:36:53.849Z,11.98
2022-08-23T08:39:24.720Z,15.00
2022-08-23T08:42:04.962Z,11.02
2022-08-23T08:44:38.440Z,11.48
2022-08-23T08:47:08.891Z,10.98
2022-08-23T08:49:41.088Z,15.25
2022-08-23T08:52:14.655Z,16.45
2022-08-23T08:54:47.966Z,13.55
2022-08-23T08:57:22.658Z,14.18
2022-08-23T08:59:57.319Z,12.27
2022-08-23T09:02:32.718Z,11.93
2022-08-23T09:05:08.510Z,15.15
2022-08-23T09:07:42.648Z,10.45
2022-08-23T09:10:31.229Z,17.30
2022-08-23T09:13:18.354Z,11.88
2022-08-23T09:15:55.673Z,12.00
2022-08-23T09:18:41.811Z,10.75
2022-08-23T09:21:11.323Z,12.15
2022-08-23T09:23:42.414Z,13.07
2022-08-23T09:26:19.294Z,14.43
2022-08-23T09:28:47.935Z,13.60
2022-08-23T09:31:36.597Z,16.55
2022-08-23T09:36:44.172Z,16.05
2022-08-23T09:39:30.980Z,11.15
2022-08-23T09:42:03.936Z,13.30
2022-08-23T09:44:34.923Z,13.43
2022-08-23T09:47:06.886Z,11.73
2022-08-23T09:49:37.149Z,11.65
2022-08-23T09:52:22.104Z,9.43
2022-08-23T09:54:56.849Z,10.52
2022-08-23T09:57:27.874Z,12.18
2022-08-23T09:59:58.178Z,9.85
2022-08-23T10:02:31.326Z,11.05
2022-08-23T10:05:13.287Z,16.13
2022-08-23T10:07:46.511Z,11.23
2022-08-23T10:10:23.700Z,11.20
2022-08-23T10:12:54.617Z,12.02
2022-08-23T10:15:26.714Z,10.68
2022-08-23T10:18:00.621Z,12.43
2022-08-23T10:20:35.750Z,8.38
2022-08-23T10:23:15.487Z,10.52
2022-08-23T10:25:54.570Z,9.68
2022-08-23T10:28:45.095Z,10.13
2022-08-23T10:31:15.872Z,8.93
2022-08-23T10:33:47.446Z,6.80
2022-08-23T10:36:16.941Z,14.65
2022-08-23T10:38:48.183Z,9.10
2022-08-23T10:41:33.791Z,9.18
2022-08-23T10:44:10.753Z,8.87
2022-08-23T10:46:43.866Z,11.02
2022-08-23T10:49:13.958Z,8.68
2022-08-23T10:51:44.353Z,9.32
2022-08-23T10:54:18.558Z,6.68
2022-08-23T10:56:50.259Z,9.65
2022-08-23T10:59:20.938Z,9.90
2022-08-23T11:01:52.146Z,9.20
2022-08-23T11:04:23.153Z,10.63
2022-08-23T11:07:03.539Z,7.50
2022-08-23T11:09:38.989Z,9.25
2022-08-23T11:12:13.106Z,10.27
2022-08-23T11:14:42.469Z,9.25
2022-08-23T11:17:12.585Z,8.63
2022-08-23T11:19:48.930Z,8.10
2022-08-23T11:22:18.234Z,7.72
2022-08-23T11:25:04.489Z,7.75
2022-08-23T11:27:41.680Z,7.45
2022-08-23T11:30:37.864Z,7.03
2022-08-23T11:33:17.951Z,7.68
2022-08-23T11:35:48.659Z,6.47
2022-08-23T11:38:22.687Z,5.07
2022-08-23T11:41:00.105Z,5.03
2022-08-23T11:43:36.484Z,7.53
2022-08-23T11:46:15.748Z,6.57
2022-08-23T11:48:46.671Z,4.95
2022-08-23T11:51:19.878Z,5.72
2022-08-23T11:54:05.593Z,7.15
2022-08-23T11:56:46.274Z,12.90
2022-08-23T11:59:22.463Z,6.25
2022-08-23T12:01:51.977Z,6.18
2022-08-23T12:04:33.069Z,5.15
2022-08-23T12:07:07.192Z,4.40
2022-08-23T12:09:52.947Z,6.93
2022-08-23T12:12:36.197Z,5.88
2022-08-23T12:15:09.821Z,7.18
2022-08-23T12:18:05.698Z,4.35
2022-08-23T12:20:34.970Z,5.53
2022-08-23T12:23:07.971Z,8.07
2022-08-23T12:25:36.378Z,4.18
2022-08-23T12:28:08.687Z,6.13
2022-08-23T12:30:44.253Z,6.97
2022-08-23T12:33:27.241Z,6.15
2022-08-23T12:35:59.683Z,4.93
2022-08-23T12:38:34.551Z,5.38
2022-08-23T12:41:14.505Z,4.47
2022-08-23T12:43:54.255Z,11.45
2022-08-23T12:46:30.970Z,4.70
2022-08-23T12:48:58.906Z,4.00
2022-08-23T12:51:26.797Z,5.13
2022-08-23T12:53:55.578Z,8.82
2022-08-23T12:56:31.370Z,4.55
2022-08-23T12:59:03.755Z,4.47
2022-08-23T13:01:35.752Z,6.82
2022-08-23T13:04:05.742Z,6.05
2022-08-23T13:06:36.358Z,7.75
2022-08-23T13:09:09.159Z,4.68
2022-08-23T13:11:38.321Z,4.90
2022-08-23T13:14:20.988Z,7.93
2022-08-23T13:16:54.002Z,5.82
2022-08-23T13:19:25.420Z,6.15
2022-08-23T13:22:08.130Z,6.10
2022-08-23T13:24:38.522Z,6.78
2022-08-23T13:27:14.888Z,5.28
2022-08-23T13:29:57.689Z,5.10
2022-08-23T13:32:29.439Z,7.30
2022-08-23T13:35:18.700Z,7.20
2022-08-23T13:37:47.777Z,5.50
2022-08-23T13:40:19.129Z,6.03
2022-08-23T13:42:51.101Z,18.50
2022-08-23T13:45:21.250Z,9.50
2022-08-23T13:47:51.945Z,7.65
2022-08-23T13:50:24.307Z,6.03
2022-08-23T13:53:13.353Z,7.32
2022-08-23T13:55:42.144Z,6.85
2022-08-23T13:58:11.161Z,10.25
2022-08-23T14:00:38.951Z,5.13
2022-08-23T14:03:15.377Z,8.70
2022-08-23T14:05:46.877Z,8.70
2022-08-23T14:08:15.091Z,8.52
2022-08-23T14:10:43.257Z,6.75
2022-08-23T14:13:12.134Z,7.40
2022-08-23T14:16:32.956Z,6.00
2022-08-23T14:18:33.295Z,6.47
2022-08-23T14:21:01.729Z,7.57
2022-08-23T14:23:29.779Z,6.63
2022-08-23T14:25:59.185Z,8.05
2022-08-23T14:28:29.544Z,9.10
2022-08-23T14:30:57.996Z,7.13
2022-08-23T14:33:26.182Z,7.80
2022-08-23T14:35:57.354Z,7.78
2022-08-23T14:38:25.300Z,5.63
2022-08-23T14:40:55.673Z,9.38
2022-08-23T14:43:23.589Z,9.63
2022-08-23T14:45:54.996Z,7.18
2022-08-23T14:48:25.322Z,8.80
2022-08-23T14:50:53.537Z,9.13
2022-08-23T14:53:24.028Z,7.65
2022-08-23T14:56:12.292Z,8.95
2022-08-23T14:58:42.025Z,7.97
2022-08-23T15:01:11.258Z,7.80
2022-08-23T15:03:41.924Z,10.82
2022-08-23T15:06:10.097Z,6.40
2022-08-23T15:08:39.452Z,6.68
2022-08-23T15:14:00.091Z,6.82
2022-08-23T15:16:29.099Z,7.28
2022-08-23T15:18:57.823Z,8.10
2022-08-23T15:21:25.870Z,14.27
2022-08-23T15:23:55.539Z,6.35
2022-08-23T15:26:24.671Z,7.60
2022-08-23T15:28:53.132Z,11.35
2022-08-23T15:31:21.512Z,6.93
2022-08-23T15:33:49.459Z,6.28
2022-08-23T15:36:18.103Z,12.45
2022-08-23T15:38:48.212Z,7.80
2022-08-23T15:41:18.541Z,5.70
2022-08-23T15:43:46.702Z,5.88
2022-08-23T15:46:17.975Z,9.65
2022-08-23T15:48:48.929Z,7.82
2022-08-23T15:51:17.233Z,7.97
2022-08-23T15:53:45.163Z,7.60
2022-08-23T15:56:15.370Z,5.63
2022-08-23T15:58:45.193Z,11.43
2022-08-23T16:01:13.463Z,7.65
2022-08-23T16:03:43.429Z,9.13
2022-08-23T16:06:12.183Z,9.13
2022-08-23T16:08:41.809Z,7.95
2022-08-23T16:11:12.430Z,5.28
2022-08-23T16:13:42.724Z,5.53
2022-08-23T16:16:15.607Z,5.15
2022-08-23T16:18:43.445Z,8.93
2022-08-23T16:21:11.445Z,6.80
2022-08-23T16:23:40.166Z,6.57
2022-08-23T16:26:08.856Z,6.38
2022-08-23T16:28:37.120Z,5.82
2022-08-23T16:31:05.150Z,7.90
2022-08-23T16:33:34.406Z,7.35
2022-08-23T16:36:02.468Z,6.88
2022-08-23T16:38:30.369Z,9.43
2022-08-23T16:40:58.286Z,18.42
2022-08-23T16:43:26.268Z,9.10
2022-08-23T16:45:54.205Z,9.35
2022-08-23T16:48:22.128Z,6.80
2022-08-23T16:50:51.718Z,7.05
2022-08-23T16:53:20.296Z,11.32
2022-08-23T16:55:48.523Z,6.00
2022-08-23T16:58:16.474Z,7.65
2022-08-23T17:00:44.396Z,7.20
2022-08-23T17:03:12.331Z,5.60
2022-08-23T17:05:40.281Z,5.93
2022-08-23T17:08:09.635Z,6.28
2022-08-23T17:10:37.747Z,9.90
2022-08-23T17:13:06.219Z,7.63
2022-08-23T17:15:36.025Z,6.28
2022-08-23T17:18:04.513Z,7.50
2022-08-23T17:20:34.631Z,6.75
2022-08-23T17:23:05.796Z,6.20
2022-08-23T17:25:35.744Z,6.05
2022-08-23T17:28:03.829Z,4.97
2022-08-23T17:30:31.979Z,6.18
2022-08-23T17:33:00.081Z,5.90
2022-08-23T17:35:29.055Z,5.28
2022-08-23T17:38:02.724Z,5.45
2022-08-23T17:40:31.755Z,6.47
2022-08-23T17:43:01.945Z,5.70
2022-08-23T17:45:30.504Z,11.50
2022-08-23T17:47:58.456Z,7.28
2022-08-23T17:50:26.546Z,6.30
2022-08-23T17:52:55.177Z,7.93
2022-08-23T17:55:23.610Z,7.53
2022-08-23T17:57:56.222Z,6.43
2022-08-23T18:00:27.689Z,5.63
2022-08-23T18:02:55.795Z,6.47
2022-08-23T18:05:24.271Z,6.38
2022-08-23T18:07:52.247Z,6.43
2022-08-23T18:10:20.495Z,11.25
2022-08-23T18:12:48.528Z,8.68
2022-08-23T18:15:16.914Z,6.35
2022-08-23T18:17:46.428Z,6.28
2022-08-23T18:20:14.758Z,5.25
2022-08-23T18:22:43.048Z,7.38
2022-08-23T18:25:13.506Z,4.60
2022-08-23T18:28:10.423Z,6.68
2022-08-23T18:30:39.686Z,4.93
2022-08-23T18:33:12.382Z,7.93
2022-08-23T18:35:41.016Z,6.15
2022-08-23T18:38:09.426Z,5.93
2022-08-23T18:40:45.382Z,5.30
2022-08-23T18:43:13.947Z,5.53
2022-08-23T18:45:41.892Z,4.65
2022-08-23T18:48:12.346Z,5.20
2022-08-23T18:50:40.658Z,4.70
2022-08-23T18:53:08.682Z,5.60
2022-08-23T18:55:36.799Z,4.75
2022-08-23T18:58:05.033Z,6.55
2022-08-23T19:00:32.901Z,7.80
2022-08-23T19:03:00.737Z,5.05
2022-08-23T19:05:41.700Z,5.07
2022-08-23T19:08:12.683Z,5.82
2022-08-23T19:10:40.965Z,5.40
2022-08-23T19:13:09.912Z,6.35
2022-08-23T19:15:40.490Z,6.15
2022-08-23T19:18:08.879Z,4.10
2022-08-23T19:20:39.002Z,6.13
2022-08-23T19:23:07.609Z,4.90
2022-08-23T19:25:38.575Z,4.45
2022-08-23T19:28:07.252Z,4.40
2022-08-23T19:30:35.187Z,5.55
2022-08-23T19:33:04.128Z,5.22
2022-08-23T19:35:32.343Z,3.92
2022-08-23T19:38:01.679Z,3.85
2022-08-23T19:40:29.699Z,6.20
2022-08-23T19:42:59.834Z,4.43
2022-08-23T19:45:32.046Z,7.45
2022-08-23T19:48:00.627Z,5.03
2022-08-23T19:50:29.402Z,6.35
2022-08-23T19:52:57.564Z,6.20
2022-08-23T19:55:27.927Z,5.35
2022-08-23T19:57:56.762Z,8.40
2022-08-23T20:00:25.548Z,9.15
2022-08-23T20:02:53.747Z,7.97
2022-08-23T20:05:22.468Z,5.63
2022-08-23T20:07:50.421Z,5.68
2022-08-23T20:10:18.196Z,6.80
2022-08-23T20:12:47.498Z,8.70
2022-08-23T20:15:18.980Z,4.75
2022-08-23T20:17:46.888Z,4.07
2022-08-23T20:20:14.936Z,4.28
2022-08-23T20:23:00.532Z,4.50
2022-08-23T20:25:29.789Z,5.28
2022-08-23T20:27:59.405Z,4.82
2022-08-23T20:30:27.278Z,4.25
2022-08-23T20:32:55.246Z,4.45
2022-08-23T20:35:24.272Z,3.72
2022-08-23T20:37:52.231Z,6.25
2022-08-23T20:40:21.849Z,5.75
2022-08-23T20:42:51.239Z,4.78
2022-08-23T20:45:20.566Z,6.25
2022-08-23T20:47:48.475Z,4.57
2022-08-23T20:50:16.331Z,6.88
2022-08-23T20:52:44.259Z,8.18
2022-08-23T20:55:15.017Z,8.00
2022-08-23T20:57:42.864Z,7.53
2022-08-23T21:00:11.729Z,4.63
2022-08-23T21:02:40.990Z,5.25
2022-08-23T21:05:09.678Z,5.07
2022-08-23T21:07:38.009Z,6.82
2022-08-23T21:10:06.514Z,4.50
2022-08-23T21:12:35.087Z,5.00
2022-08-23T21:15:03.055Z,5.00
2022-08-23T21:17:30.825Z,7.68
2022-08-23T21:20:00.173Z,5.82
2022-08-23T21:22:31.989Z,7.57
2022-08-23T21:25:00.479Z,7.05
2022-08-23T21:27:28.419Z,6.28
2022-08-23T21:29:56.319Z,5.88
2022-08-23T21:32:24.268Z,5.07
2022-08-23T21:34:52.253Z,5.55
2022-08-23T21:37:21.588Z,7.10
2022-08-23T21:39:50.360Z,7.60
2022-08-23T21:42:23.466Z,4.63
2022-08-23T21:44:51.733Z,4.18
2022-08-23T21:47:20.873Z,4.00
2022-08-23T21:49:48.810Z,5.07
2022-08-23T21:52:16.671Z,3.42
2022-08-23T21:54:46.029Z,5.72
2022-08-23T21:57:13.873Z,5.38
2022-08-23T21:59:41.908Z,3.80
2022-08-23T22:02:10.040Z,6.72
2022-08-23T22:04:38.408Z,8.27
2022-08-23T22:07:06.376Z,5.53
2022-08-23T22:09:34.273Z,4.20
2022-08-23T22:12:03.883Z,4.13
2022-08-23T22:14:32.610Z,5.05
2022-08-23T22:17:00.726Z,4.45
2022-08-23T22:19:28.836Z,5.28
2022-08-23T22:21:56.779Z,4.32
2022-08-23T22:24:26.212Z,6.65
2022-08-23T22:26:54.904Z,6.45
2022-08-23T22:29:24.718Z,9.23
2022-08-23T22:31:52.646Z,5.07
2022-08-23T22:34:20.476Z,3.53
2022-08-23T22:36:51.635Z,4.13
2022-08-23T22:39:20.764Z,4.63
2022-08-23T22:41:48.769Z,3.80
2022-08-23T22:44:17.109Z,4.30
2022-08-23T22:46:46.579Z,5.82
2022-08-23T22:49:14.602Z,4.68
2022-08-23T22:51:42.721Z,4.10
2022-08-23T22:54:11.551Z,6.03
2022-08-23T22:56:41.090Z,9.32
2022-08-23T22:59:09.676Z,3.53
2022-08-23T23:01:39.092Z,3.70
2022-08-23T23:04:10.283Z,5.03
2022-08-23T23:06:39.438Z,5.95
2022-08-23T23:09:08.681Z,5.25
2022-08-23T23:11:40.105Z,4.20
2022-08-23T23:14:09.652Z,4.65
2022-08-23T23:16:37.767Z,4.65
2022-08-23T23:19:23.871Z,3.63
2022-08-23T23:21:54.432Z,4.55
2022-08-23T23:24:23.900Z,4.20
2022-08-23T23:26:52.019Z,7.53
2022-08-23T23:29:20.684Z,4.03
2022-08-23T23:31:48.848Z,3.80
2022-08-23T23:34:16.963Z,4.07
2022-08-23T23:36:45.374Z,5.35
2022-08-23T23:39:15.445Z,3.92
2022-08-23T23:41:44.346Z,4.40
2022-08-23T23:44:12.309Z,4.80
2022-08-23T23:46:40.200Z,4.97
2022-08-23T23:49:08.081Z,4.43
2022-08-23T23:51:35.952Z,5.72
2022-08-23T23:54:03.756Z,6.57
2022-08-23T23:56:36.770Z,4.85
2022-08-23T23:59:04.627Z,4.03
